Pagrindinis puslapis
METAR-TAF:

METAR-TAF

Oro uostai :

Ernšioldsvikas, Švedija

platuma: 63-24N, ilguma: 018-58E, Aukštis: 103 m

Dabartinis oras

Ataskaita buvo paskelbta 17 minutes, ne 17:50 UTC
Vėjas 2 kt nuo kintamojo kryptimis
Temperatūra 11°C
Drėgmė 100%
Slėgis 997 hPa
Matomumas 10 km arba daugiau

METAR: ESNO 231750Z AUTO VRB02KT 9999 FEW051/// OVC098/// 11/11 Q0997

Laikas: 20:07 (18:07 UTC)

Prognozė

Ataskaita buvo paskelbta 3 valandos ir 37 minutes, ne 14:30 UTC
Prognozė galioja nuo 23 metu 15 UTC su 23 metu 19 UTC
Vėjas 10 kt iš Pietų
Matomumas 10 km arba daugiau
Su prošvaistėmis ne aukštis 2500 ft
Tikimybė 40%
nuo 23 metu 18 UTC su 23 metu 19 UTC
Vėjas 7 kt iš Vakarų/Pietvakarių
Su prošvaistėmis ne aukštis 1400 ft, Liūtiniai kamuoliniai debesys.
lietus

TAF: ESNO 231430Z 2315/2319 18010KT 9999 BKN025 PROB40 2318/2319 24007KT RA BKN014CB

Orai ataskaitas ir orų prognozės (METAR, TAF).

turimą stotys yra geltonos ir raudonos taškus žemėlapyje.

Perkelti pele per norėdami pamatyti stoties vardą.

Tada spustelėkite, norėdami matyti oro stebėjimo ir prognozės.

Norėdami pakeisti žemėlapį: spustelėkite ant žalios mygtukų su juodo kryžiaus žemyn,; žalią mygtuką su brūkšneliu, jei norite nutolinti; arba žalių rodyklių gretimoms žemėlapius.


METAR-TAF: